sensor_id;sensor_type;location;lat;lon;timestamp;temperature;humidity
11474;DHT22;5793;52.238;13.438;2024-03-08T00:01:24;-2.00;99.90
11474;DHT22;5793;52.238;13.438;2024-03-08T00:03:53;-2.00;99.90
11474;DHT22;5793;52.238;13.438;2024-03-08T00:06:21;-2.00;99.90
11474;DHT22;5793;52.238;13.438;2024-03-08T00:08:49;-2.00;99.90
11474;DHT22;5793;52.238;13.438;2024-03-08T00:11:17;-2.10;99.90
11474;DHT22;5793;52.238;13.438;2024-03-08T00:13:45;-2.20;99.90
11474;DHT22;5793;52.238;13.438;2024-03-08T00:16:13;-2.00;99.90
11474;DHT22;5793;52.238;13.438;2024-03-08T00:18:41;-2.00;99.90
11474;DHT22;5793;52.238;13.438;2024-03-08T00:21:10;-2.00;99.90
11474;DHT22;5793;52.238;13.438;2024-03-08T00:23:38;-2.10;99.90
11474;DHT22;5793;52.238;13.438;2024-03-08T00:26:06;-2.20;99.90
11474;DHT22;5793;52.238;13.438;2024-03-08T00:28:34;-2.20;99.90
11474;DHT22;5793;52.238;13.438;2024-03-08T00:31:02;-2.30;99.90
11474;DHT22;5793;52.238;13.438;2024-03-08T00:33:30;-2.30;99.90
11474;DHT22;5793;52.238;13.438;2024-03-08T00:35:58;-2.30;99.90
11474;DHT22;5793;52.238;13.438;2024-03-08T00:38:27;-2.40;99.90
11474;DHT22;5793;52.238;13.438;2024-03-08T00:40:55;-2.40;99.90
11474;DHT22;5793;52.238;13.438;2024-03-08T00:43:23;-2.40;99.90
11474;DHT22;5793;52.238;13.438;2024-03-08T00:45:51;-2.40;99.90
11474;DHT22;5793;52.238;13.438;2024-03-08T00:48:19;-2.40;99.90
11474;DHT22;5793;52.238;13.438;2024-03-08T00:50:47;-2.40;99.90
11474;DHT22;5793;52.238;13.438;2024-03-08T00:53:15;-2.40;99.90
11474;DHT22;5793;52.238;13.438;2024-03-08T00:55:44;-2.50;99.90
11474;DHT22;5793;52.238;13.438;2024-03-08T00:58:13;-2.50;99.90
11474;DHT22;5793;52.238;13.438;2024-03-08T01:00:40;-2.50;99.90
11474;DHT22;5793;52.238;13.438;2024-03-08T01:03:08;-2.60;99.90
11474;DHT22;5793;52.238;13.438;2024-03-08T01:05:37;-2.60;99.90
11474;DHT22;5793;52.238;13.438;2024-03-08T01:08:06;-2.50;99.90
11474;DHT22;5793;52.238;13.438;2024-03-08T01:10:34;-2.50;99.90
11474;DHT22;5793;52.238;13.438;2024-03-08T01:13:03;-2.50;99.90
11474;DHT22;5793;52.238;13.438;2024-03-08T01:15:31;-2.50;99.90
11474;DHT22;5793;52.238;13.438;2024-03-08T01:17:59;-2.50;99.90
11474;DHT22;5793;52.238;13.438;2024-03-08T01:20:27;-2.40;99.90
11474;DHT22;5793;52.238;13.438;2024-03-08T01:22:55;-2.30;99.90
11474;DHT22;5793;52.238;13.438;2024-03-08T01:25:23;-2.20;99.90
11474;DHT22;5793;52.238;13.438;2024-03-08T01:27:50;-2.30;99.90
11474;DHT22;5793;52.238;13.438;2024-03-08T01:30:21;-2.40;99.90
11474;DHT22;5793;52.238;13.438;2024-03-08T01:32:49;-2.50;99.90
11474;DHT22;5793;52.238;13.438;2024-03-08T01:35:17;-2.70;99.90
11474;DHT22;5793;52.238;13.438;2024-03-08T01:37:46;-2.70;99.90
11474;DHT22;5793;52.238;13.438;2024-03-08T01:40:14;-2.80;99.90
11474;DHT22;5793;52.238;13.438;2024-03-08T01:42:43;-2.80;99.90
11474;DHT22;5793;52.238;13.438;2024-03-08T01:45:11;-2.70;99.90
11474;DHT22;5793;52.238;13.438;2024-03-08T01:47:41;-2.80;99.90
11474;DHT22;5793;52.238;13.438;2024-03-08T01:50:09;-2.70;99.90
11474;DHT22;5793;52.238;13.438;2024-03-08T01:52:37;-2.70;99.90
11474;DHT22;5793;52.238;13.438;2024-03-08T01:55:06;-2.80;99.90
11474;DHT22;5793;52.238;13.438;2024-03-08T01:57:34;-2.80;99.90
11474;DHT22;5793;52.238;13.438;2024-03-08T02:00:05;-2.90;99.90
11474;DHT22;5793;52.238;13.438;2024-03-08T02:02:37;-3.00;99.90
11474;DHT22;5793;52.238;13.438;2024-03-08T02:05:06;-3.00;99.90
11474;DHT22;5793;52.238;13.438;2024-03-08T02:07:34;-3.10;99.90
11474;DHT22;5793;52.238;13.438;2024-03-08T02:10:03;-3.10;99.90
11474;DHT22;5793;52.238;13.438;2024-03-08T02:12:31;-3.10;99.90
11474;DHT22;5793;52.238;13.438;2024-03-08T02:14:58;-3.10;99.90
11474;DHT22;5793;52.238;13.438;2024-03-08T02:17:26;-3.10;99.90
11474;DHT22;5793;52.238;13.438;2024-03-08T02:19:54;-3.10;99.90
11474;DHT22;5793;52.238;13.438;2024-03-08T02:22:27;-3.20;99.90
11474;DHT22;5793;52.238;13.438;2024-03-08T02:24:55;-3.10;99.90
11474;DHT22;5793;52.238;13.438;2024-03-08T02:27:24;-3.10;99.90
11474;DHT22;5793;52.238;13.438;2024-03-08T02:29:53;-3.10;99.90
11474;DHT22;5793;52.238;13.438;2024-03-08T02:32:23;-3.10;99.90
11474;DHT22;5793;52.238;13.438;2024-03-08T02:34:51;-3.20;99.90
11474;DHT22;5793;52.238;13.438;2024-03-08T02:37:19;-3.20;99.90
11474;DHT22;5793;52.238;13.438;2024-03-08T02:39:48;-3.20;99.90
11474;DHT22;5793;52.238;13.438;2024-03-08T02:42:15;-3.20;99.90
11474;DHT22;5793;52.238;13.438;2024-03-08T02:44:44;-3.10;99.90
11474;DHT22;5793;52.238;13.438;2024-03-08T02:47:12;-3.00;99.90
11474;DHT22;5793;52.238;13.438;2024-03-08T02:49:39;-3.00;99.90
11474;DHT22;5793;52.238;13.438;2024-03-08T02:52:07;-3.10;99.90
11474;DHT22;5793;52.238;13.438;2024-03-08T02:54:35;-3.10;99.90
11474;DHT22;5793;52.238;13.438;2024-03-08T02:57:04;-3.20;99.90
11474;DHT22;5793;52.238;13.438;2024-03-08T02:59:34;-3.30;99.90
11474;DHT22;5793;52.238;13.438;2024-03-08T03:02:02;-3.40;99.90
11474;DHT22;5793;52.238;13.438;2024-03-08T03:04:29;-3.40;99.90
11474;DHT22;5793;52.238;13.438;2024-03-08T03:06:57;-3.40;99.90
11474;DHT22;5793;52.238;13.438;2024-03-08T03:09:25;-3.40;99.90
11474;DHT22;5793;52.238;13.438;2024-03-08T03:11:54;-3.40;99.90
11474;DHT22;5793;52.238;13.438;2024-03-08T03:14:24;-3.40;99.90
11474;DHT22;5793;52.238;13.438;2024-03-08T03:16:53;-3.40;99.90
11474;DHT22;5793;52.238;13.438;2024-03-08T03:19:21;-3.50;99.90
11474;DHT22;5793;52.238;13.438;2024-03-08T03:21:49;-3.50;99.90
11474;DHT22;5793;52.238;13.438;2024-03-08T03:24:17;-3.50;99.90
11474;DHT22;5793;52.238;13.438;2024-03-08T03:26:47;-3.50;99.90
11474;DHT22;5793;52.238;13.438;2024-03-08T03:29:16;-3.50;99.90
11474;DHT22;5793;52.238;13.438;2024-03-08T03:34:25;-3.50;99.90
11474;DHT22;5793;52.238;13.438;2024-03-08T03:36:53;-3.60;99.90
11474;DHT22;5793;52.238;13.438;2024-03-08T03:39:22;-3.60;99.90
11474;DHT22;5793;52.238;13.438;2024-03-08T03:41:50;-3.60;99.90
11474;DHT22;5793;52.238;13.438;2024-03-08T03:44:18;-3.70;99.90
11474;DHT22;5793;52.238;13.438;2024-03-08T03:46:46;-3.70;99.90
11474;DHT22;5793;52.238;13.438;2024-03-08T03:49:14;-3.70;99.90
11474;DHT22;5793;52.238;13.438;2024-03-08T03:51:43;-3.70;99.90
11474;DHT22;5793;52.238;13.438;2024-03-08T03:54:11;-3.70;99.90
11474;DHT22;5793;52.238;13.438;2024-03-08T03:56:39;-3.60;99.90
11474;DHT22;5793;52.238;13.438;2024-03-08T03:59:07;-3.60;99.90
11474;DHT22;5793;52.238;13.438;2024-03-08T04:01:35;-3.60;99.90
11474;DHT22;5793;52.238;13.438;2024-03-08T04:04:05;-3.70;99.90
11474;DHT22;5793;52.238;13.438;2024-03-08T04:06:33;-3.70;99.90
11474;DHT22;5793;52.238;13.438;2024-03-08T04:09:02;-3.80;99.90
11474;DHT22;5793;52.238;13.438;2024-03-08T04:11:31;-3.70;99.90
11474;DHT22;5793;52.238;13.438;2024-03-08T04:13:59;-3.60;99.90
11474;DHT22;5793;52.238;13.438;2024-03-08T04:16:26;-3.70;99.90
11474;DHT22;5793;52.238;13.438;2024-03-08T04:18:54;-3.70;99.90
11474;DHT22;5793;52.238;13.438;2024-03-08T04:21:22;-3.70;99.90
11474;DHT22;5793;52.238;13.438;2024-03-08T04:23:50;-3.60;99.90
11474;DHT22;5793;52.238;13.438;2024-03-08T04:26:19;-3.60;99.90
11474;DHT22;5793;52.238;13.438;2024-03-08T04:28:47;-3.60;99.90
11474;DHT22;5793;52.238;13.438;2024-03-08T04:31:15;-3.70;99.90
11474;DHT22;5793;52.238;13.438;2024-03-08T04:33:43;-3.70;99.90
11474;DHT22;5793;52.238;13.438;2024-03-08T04:36:11;-3.70;99.90
11474;DHT22;5793;52.238;13.438;2024-03-08T04:38:40;-3.60;99.90
11474;DHT22;5793;52.238;13.438;2024-03-08T04:41:08;-3.60;99.90
11474;DHT22;5793;52.238;13.438;2024-03-08T04:43:38;-3.60;99.90
11474;DHT22;5793;52.238;13.438;2024-03-08T04:46:05;-3.70;99.90
11474;DHT22;5793;52.238;13.438;2024-03-08T04:48:33;-3.70;99.90
11474;DHT22;5793;52.238;13.438;2024-03-08T04:51:03;-3.70;99.90
11474;DHT22;5793;52.238;13.438;2024-03-08T04:53:31;-3.70;99.90
11474;DHT22;5793;52.238;13.438;2024-03-08T04:56:01;-3.70;99.90
11474;DHT22;5793;52.238;13.438;2024-03-08T04:58:32;-3.80;99.90
11474;DHT22;5793;52.238;13.438;2024-03-08T05:01:02;-3.80;99.90
11474;DHT22;5793;52.238;13.438;2024-03-08T05:03:30;-3.90;99.90
11474;DHT22;5793;52.238;13.438;2024-03-08T05:05:58;-3.80;99.90
11474;DHT22;5793;52.238;13.438;2024-03-08T05:08:26;-3.70;99.90
11474;DHT22;5793;52.238;13.438;2024-03-08T05:10:54;-3.70;99.90
11474;DHT22;5793;52.238;13.438;2024-03-08T05:13:22;-3.60;99.90
11474;DHT22;5793;52.238;13.438;2024-03-08T05:15:50;-3.60;99.90
11474;DHT22;5793;52.238;13.438;2024-03-08T05:18:19;-3.60;99.90
11474;DHT22;5793;52.238;13.438;2024-03-08T05:20:48;-3.60;99.90
11474;DHT22;5793;52.238;13.438;2024-03-08T05:23:16;-3.70;99.90
11474;DHT22;5793;52.238;13.438;2024-03-08T05:25:46;-3.60;99.90
11474;DHT22;5793;52.238;13.438;2024-03-08T05:28:14;-3.70;99.90
11474;DHT22;5793;52.238;13.438;2024-03-08T05:30:42;-3.70;99.90
11474;DHT22;5793;52.238;13.438;2024-03-08T05:33:10;-3.80;99.90
11474;DHT22;5793;52.238;13.438;2024-03-08T05:35:39;-3.80;99.90
11474;DHT22;5793;52.238;13.438;2024-03-08T05:38:07;-3.70;99.90
11474;DHT22;5793;52.238;13.438;2024-03-08T05:40:35;-3.70;99.90
11474;DHT22;5793;52.238;13.438;2024-03-08T05:43:02;-3.80;99.90
11474;DHT22;5793;52.238;13.438;2024-03-08T05:45:30;-3.80;99.90
11474;DHT22;5793;52.238;13.438;2024-03-08T05:47:58;-3.70;99.90
11474;DHT22;5793;52.238;13.438;2024-03-08T05:50:26;-3.70;99.90
11474;DHT22;5793;52.238;13.438;2024-03-08T05:52:55;-3.70;99.90
11474;DHT22;5793;52.238;13.438;2024-03-08T05:55:23;-3.60;99.90
11474;DHT22;5793;52.238;13.438;2024-03-08T05:57:51;-3.60;99.90
11474;DHT22;5793;52.238;13.438;2024-03-08T06:00:20;-3.60;99.90
11474;DHT22;5793;52.238;13.438;2024-03-08T06:02:49;-3.60;99.90
11474;DHT22;5793;52.238;13.438;2024-03-08T06:05:17;-3.60;99.90
11474;DHT22;5793;52.238;13.438;2024-03-08T06:07:45;-3.60;99.90
11474;DHT22;5793;52.238;13.438;2024-03-08T06:10:14;-3.50;99.90
11474;DHT22;5793;52.238;13.438;2024-03-08T06:12:44;-3.30;99.90
11474;DHT22;5793;52.238;13.438;2024-03-08T06:15:11;-3.20;99.90
11474;DHT22;5793;52.238;13.438;2024-03-08T06:17:42;-3.20;99.90
11474;DHT22;5793;52.238;13.438;2024-03-08T06:20:11;-3.10;99.90
11474;DHT22;5793;52.238;13.438;2024-03-08T06:22:40;-3.00;99.90
11474;DHT22;5793;52.238;13.438;2024-03-08T06:25:09;-3.00;99.90
11474;DHT22;5793;52.238;13.438;2024-03-08T06:27:39;-2.90;99.90
11474;DHT22;5793;52.238;13.438;2024-03-08T06:30:07;-2.80;99.90
11474;DHT22;5793;52.238;13.438;2024-03-08T06:32:36;-2.60;99.90
11474;DHT22;5793;52.238;13.438;2024-03-08T06:35:05;-2.50;99.90
11474;DHT22;5793;52.238;13.438;2024-03-08T06:37:34;-2.30;99.90
11474;DHT22;5793;52.238;13.438;2024-03-08T06:40:02;-2.10;99.90
11474;DHT22;5793;52.238;13.438;2024-03-08T06:42:30;-2.00;99.90
11474;DHT22;5793;52.238;13.438;2024-03-08T06:45:03;-1.90;99.90
11474;DHT22;5793;52.238;13.438;2024-03-08T06:47:32;-1.80;99.90
11474;DHT22;5793;52.238;13.438;2024-03-08T06:50:01;-1.70;99.90
11474;DHT22;5793;52.238;13.438;2024-03-08T06:52:30;-1.60;99.90
11474;DHT22;5793;52.238;13.438;2024-03-08T06:54:58;-1.40;99.90
11474;DHT22;5793;52.238;13.438;2024-03-08T06:57:28;-1.40;99.90
11474;DHT22;5793;52.238;13.438;2024-03-08T06:59:56;-1.30;99.90
11474;DHT22;5793;52.238;13.438;2024-03-08T07:02:26;-1.20;99.90
11474;DHT22;5793;52.238;13.438;2024-03-08T07:04:54;-1.10;99.90
11474;DHT22;5793;52.238;13.438;2024-03-08T07:07:22;-0.90;99.90
11474;DHT22;5793;52.238;13.438;2024-03-08T07:09:51;-0.80;99.90
11474;DHT22;5793;52.238;13.438;2024-03-08T07:12:18;-0.60;99.90
11474;DHT22;5793;52.238;13.438;2024-03-08T07:14:47;-0.50;99.90
11474;DHT22;5793;52.238;13.438;2024-03-08T07:17:15;-0.40;99.90
11474;DHT22;5793;52.238;13.438;2024-03-08T07:19:44;-0.30;99.90
11474;DHT22;5793;52.238;13.438;2024-03-08T07:22:13;-0.10;99.90
11474;DHT22;5793;52.238;13.438;2024-03-08T07:24:41;0.00;99.90
11474;DHT22;5793;52.238;13.438;2024-03-08T07:27:22;0.10;99.90
11474;DHT22;5793;52.238;13.438;2024-03-08T07:29:50;0.30;99.90
11474;DHT22;5793;52.238;13.438;2024-03-08T07:32:34;0.40;99.90
11474;DHT22;5793;52.238;13.438;2024-03-08T07:35:04;0.60;99.90
11474;DHT22;5793;52.238;13.438;2024-03-08T07:37:32;0.70;99.90
11474;DHT22;5793;52.238;13.438;2024-03-08T07:40:00;0.80;99.90
11474;DHT22;5793;52.238;13.438;2024-03-08T07:42:28;1.00;99.90
11474;DHT22;5793;52.238;13.438;2024-03-08T07:44:56;1.10;99.90
11474;DHT22;5793;52.238;13.438;2024-03-08T07:47:24;1.20;99.90
11474;DHT22;5793;52.238;13.438;2024-03-08T07:49:53;1.40;99.90
11474;DHT22;5793;52.238;13.438;2024-03-08T07:52:22;1.60;99.90
11474;DHT22;5793;52.238;13.438;2024-03-08T07:54:50;1.80;99.90
11474;DHT22;5793;52.238;13.438;2024-03-08T07:57:18;1.90;99.90
11474;DHT22;5793;52.238;13.438;2024-03-08T07:59:45;2.10;99.90
11474;DHT22;5793;52.238;13.438;2024-03-08T08:02:13;2.30;99.90
11474;DHT22;5793;52.238;13.438;2024-03-08T08:04:41;2.40;99.90
11474;DHT22;5793;52.238;13.438;2024-03-08T08:07:09;2.50;99.90
11474;DHT22;5793;52.238;13.438;2024-03-08T08:09:39;2.60;99.90
11474;DHT22;5793;52.238;13.438;2024-03-08T08:12:07;2.70;99.90
11474;DHT22;5793;52.238;13.438;2024-03-08T08:14:38;2.90;99.90
11474;DHT22;5793;52.238;13.438;2024-03-08T08:17:07;3.00;99.90
11474;DHT22;5793;52.238;13.438;2024-03-08T08:19:36;3.00;99.90
11474;DHT22;5793;52.238;13.438;2024-03-08T08:22:05;3.30;99.90
11474;DHT22;5793;52.238;13.438;2024-03-08T08:24:35;3.50;99.90
11474;DHT22;5793;52.238;13.438;2024-03-08T08:27:05;3.90;99.90
11474;DHT22;5793;52.238;13.438;2024-03-08T08:29:35;4.50;99.90
11474;DHT22;5793;52.238;13.438;2024-03-08T08:32:03;6.10;99.90
11474;DHT22;5793;52.238;13.438;2024-03-08T08:34:38;7.50;99.90
11474;DHT22;5793;52.238;13.438;2024-03-08T08:37:08;9.00;99.90
11474;DHT22;5793;52.238;13.438;2024-03-08T08:39:36;10.70;99.90
11474;DHT22;5793;52.238;13.438;2024-03-08T08:42:04;12.20;99.90
11474;DHT22;5793;52.238;13.438;2024-03-08T08:44:35;13.60;94.60
11474;DHT22;5793;52.238;13.438;2024-03-08T08:47:03;14.40;87.20
11474;DHT22;5793;52.238;13.438;2024-03-08T08:49:42;14.50;82.00
11474;DHT22;5793;52.238;13.438;2024-03-08T08:52:11;14.50;81.90
11474;DHT22;5793;52.238;13.438;2024-03-08T08:54:43;13.70;79.20
11474;DHT22;5793;52.238;13.438;2024-03-08T08:57:15;14.00;79.20
11474;DHT22;5793;52.238;13.438;2024-03-08T08:59:43;14.90;77.40
11474;DHT22;5793;52.238;13.438;2024-03-08T09:02:12;15.50;75.90
11474;DHT22;5793;52.238;13.438;2024-03-08T09:04:45;16.40;68.60
11474;DHT22;5793;52.238;13.438;2024-03-08T09:07:14;16.40;65.40
11474;DHT22;5793;52.238;13.438;2024-03-08T09:09:43;16.40;65.80
11474;DHT22;5793;52.238;13.438;2024-03-08T09:12:11;17.30;63.60
11474;DHT22;5793;52.238;13.438;2024-03-08T09:14:40;15.60;64.20
11474;DHT22;5793;52.238;13.438;2024-03-08T09:17:08;14.50;68.50
11474;DHT22;5793;52.238;13.438;2024-03-08T09:19:36;13.50;69.40
11474;DHT22;5793;52.238;13.438;2024-03-08T09:22:05;13.20;71.10
11474;DHT22;5793;52.238;13.438;2024-03-08T09:24:33;13.70;69.60
11474;DHT22;5793;52.238;13.438;2024-03-08T09:27:01;15.40;67.50
11474;DHT22;5793;52.238;13.438;2024-03-08T09:29:29;16.60;62.40
11474;DHT22;5793;52.238;13.438;2024-03-08T09:31:57;17.40;61.70
11474;DHT22;5793;52.238;13.438;2024-03-08T09:34:25;18.20;59.20
11474;DHT22;5793;52.238;13.438;2024-03-08T09:37:04;17.20;59.70
11474;DHT22;5793;52.238;13.438;2024-03-08T09:39:33;16.80;58.70
11474;DHT22;5793;52.238;13.438;2024-03-08T09:42:01;17.60;56.80
11474;DHT22;5793;52.238;13.438;2024-03-08T09:44:29;17.70;58.40
11474;DHT22;5793;52.238;13.438;2024-03-08T09:46:58;16.80;58.10
11474;DHT22;5793;52.238;13.438;2024-03-08T09:49:26;17.70;57.30
11474;DHT22;5793;52.238;13.438;2024-03-08T09:51:55;18.20;56.80
11474;DHT22;5793;52.238;13.438;2024-03-08T09:54:25;18.50;54.40
11474;DHT22;5793;52.238;13.438;2024-03-08T09:56:53;16.90;54.40
11474;DHT22;5793;52.238;13.438;2024-03-08T09:59:21;14.70;57.20
11474;DHT22;5793;52.238;13.438;2024-03-08T10:02:14;14.70;58.20
11474;DHT22;5793;52.238;13.438;2024-03-08T10:04:44;15.50;58.10
11474;DHT22;5793;52.238;13.438;2024-03-08T10:07:13;15.80;57.40
11474;DHT22;5793;52.238;13.438;2024-03-08T10:09:43;16.40;56.40
11474;DHT22;5793;52.238;13.438;2024-03-08T10:12:17;16.10;54.40
11474;DHT22;5793;52.238;13.438;2024-03-08T10:14:46;15.20;56.10
11474;DHT22;5793;52.238;13.438;2024-03-08T10:17:14;16.00;56.30
11474;DHT22;5793;52.238;13.438;2024-03-08T10:19:49;15.70;56.10
11474;DHT22;5793;52.238;13.438;2024-03-08T10:22:18;15.50;55.90
11474;DHT22;5793;52.238;13.438;2024-03-08T10:24:47;15.70;54.70
11474;DHT22;5793;52.238;13.438;2024-03-08T10:27:16;15.10;56.10
11474;DHT22;5793;52.238;13.438;2024-03-08T10:29:47;14.70;55.80
11474;DHT22;5793;52.238;13.438;2024-03-08T10:32:15;14.60;56.80
11474;DHT22;5793;52.238;13.438;2024-03-08T10:34:42;16.10;55.40
11474;DHT22;5793;52.238;13.438;2024-03-08T10:37:15;16.60;53.90
11474;DHT22;5793;52.238;13.438;2024-03-08T10:39:52;15.60;55.60
11474;DHT22;5793;52.238;13.438;2024-03-08T10:42:27;15.40;56.20
11474;DHT22;5793;52.238;13.438;2024-03-08T10:45:04;15.30;56.90
11474;DHT22;5793;52.238;13.438;2024-03-08T10:47:37;15.00;56.90
11474;DHT22;5793;52.238;13.438;2024-03-08T10:50:11;15.60;56.60
11474;DHT22;5793;52.238;13.438;2024-03-08T10:52:43;15.80;55.20
11474;DHT22;5793;52.238;13.438;2024-03-08T10:55:12;17.60;54.80
11474;DHT22;5793;52.238;13.438;2024-03-08T10:57:41;18.10;52.20
11474;DHT22;5793;52.238;13.438;2024-03-08T11:00:11;16.50;53.30
11474;DHT22;5793;52.238;13.438;2024-03-08T11:02:43;16.20;54.40
11474;DHT22;5793;52.238;13.438;2024-03-08T11:05:21;16.50;51.70
11474;DHT22;5793;52.238;13.438;2024-03-08T11:07:58;17.70;52.70
11474;DHT22;5793;52.238;13.438;2024-03-08T11:10:28;18.40;50.60
11474;DHT22;5793;52.238;13.438;2024-03-08T11:12:56;17.70;51.90
11474;DHT22;5793;52.238;13.438;2024-03-08T11:15:25;17.70;52.10
11474;DHT22;5793;52.238;13.438;2024-03-08T11:17:52;16.80;52.10
11474;DHT22;5793;52.238;13.438;2024-03-08T11:20:23;17.00;51.30
11474;DHT22;5793;52.238;13.438;2024-03-08T11:22:53;16.70;52.30
11474;DHT22;5793;52.238;13.438;2024-03-08T11:25:34;16.30;52.90
11474;DHT22;5793;52.238;13.438;2024-03-08T11:28:10;16.40;55.00
11474;DHT22;5793;52.238;13.438;2024-03-08T11:30:44;15.90;55.30
11474;DHT22;5793;52.238;13.438;2024-03-08T11:33:13;16.60;51.80
11474;DHT22;5793;52.238;13.438;2024-03-08T11:35:43;15.10;54.60
11474;DHT22;5793;52.238;13.438;2024-03-08T11:38:12;14.60;55.50
11474;DHT22;5793;52.238;13.438;2024-03-08T11:40:46;13.70;57.10
11474;DHT22;5793;52.238;13.438;2024-03-08T11:43:16;13.80;57.40
11474;DHT22;5793;52.238;13.438;2024-03-08T11:45:44;13.50;58.70
11474;DHT22;5793;52.238;13.438;2024-03-08T11:48:12;12.80;61.20
11474;DHT22;5793;52.238;13.438;2024-03-08T11:50:41;12.00;60.50
11474;DHT22;5793;52.238;13.438;2024-03-08T11:53:10;10.90;64.50
11474;DHT22;5793;52.238;13.438;2024-03-08T11:55:40;10.50;66.20
11474;DHT22;5793;52.238;13.438;2024-03-08T11:58:12;10.30;66.10
11474;DHT22;5793;52.238;13.438;2024-03-08T12:00:40;10.50;67.40
11474;DHT22;5793;52.238;13.438;2024-03-08T12:03:08;10.40;66.90
11474;DHT22;5793;52.238;13.438;2024-03-08T12:05:37;10.30;66.70
11474;DHT22;5793;52.238;13.438;2024-03-08T12:08:05;10.20;66.90
11474;DHT22;5793;52.238;13.438;2024-03-08T12:10:34;10.20;67.70
11474;DHT22;5793;52.238;13.438;2024-03-08T12:13:03;10.00;66.90
11474;DHT22;5793;52.238;13.438;2024-03-08T12:15:33;10.10;68.60
11474;DHT22;5793;52.238;13.438;2024-03-08T12:18:01;10.20;66.50
11474;DHT22;5793;52.238;13.438;2024-03-08T12:20:31;10.40;67.40
11474;DHT22;5793;52.238;13.438;2024-03-08T12:22:59;10.30;65.90
11474;DHT22;5793;52.238;13.438;2024-03-08T12:25:29;10.20;65.20
11474;DHT22;5793;52.238;13.438;2024-03-08T12:28:07;10.10;65.00
11474;DHT22;5793;52.238;13.438;2024-03-08T12:30:45;10.20;67.20
11474;DHT22;5793;52.238;13.438;2024-03-08T12:33:14;10.40;66.10
11474;DHT22;5793;52.238;13.438;2024-03-08T12:35:50;10.60;65.60
11474;DHT22;5793;52.238;13.438;2024-03-08T12:38:20;10.40;63.90
11474;DHT22;5793;52.238;13.438;2024-03-08T12:40:55;10.20;64.50
11474;DHT22;5793;52.238;13.438;2024-03-08T12:43:24;10.40;63.80
11474;DHT22;5793;52.238;13.438;2024-03-08T12:45:53;10.50;65.10
11474;DHT22;5793;52.238;13.438;2024-03-08T12:48:21;10.40;64.90
11474;DHT22;5793;52.238;13.438;2024-03-08T12:50:49;10.70;64.90
11474;DHT22;5793;52.238;13.438;2024-03-08T12:53:18;10.60;65.20
11474;DHT22;5793;52.238;13.438;2024-03-08T12:55:46;10.70;65.60
11474;DHT22;5793;52.238;13.438;2024-03-08T12:58:14;10.80;66.50
11474;DHT22;5793;52.238;13.438;2024-03-08T13:00:43;11.00;66.80
11474;DHT22;5793;52.238;13.438;2024-03-08T13:03:13;10.60;67.50
11474;DHT22;5793;52.238;13.438;2024-03-08T13:05:43;10.60;67.60
11474;DHT22;5793;52.238;13.438;2024-03-08T13:08:11;10.50;66.70
11474;DHT22;5793;52.238;13.438;2024-03-08T13:10:40;10.30;67.40
11474;DHT22;5793;52.238;13.438;2024-03-08T13:13:11;10.00;67.60
11474;DHT22;5793;52.238;13.438;2024-03-08T13:15:40;9.90;70.30
11474;DHT22;5793;52.238;13.438;2024-03-08T13:18:09;10.10;69.40
11474;DHT22;5793;52.238;13.438;2024-03-08T13:20:38;10.20;68.50
11474;DHT22;5793;52.238;13.438;2024-03-08T13:23:13;10.20;68.80
11474;DHT22;5793;52.238;13.438;2024-03-08T13:25:41;10.20;68.60
11474;DHT22;5793;52.238;13.438;2024-03-08T13:28:09;10.30;68.40
11474;DHT22;5793;52.238;13.438;2024-03-08T13:30:37;10.00;68.10
11474;DHT22;5793;52.238;13.438;2024-03-08T13:33:05;10.00;69.70
11474;DHT22;5793;52.238;13.438;2024-03-08T13:35:34;10.10;68.80
11474;DHT22;5793;52.238;13.438;2024-03-08T13:38:03;10.00;70.00
11474;DHT22;5793;52.238;13.438;2024-03-08T13:40:34;10.00;70.10
11474;DHT22;5793;52.238;13.438;2024-03-08T13:43:02;9.90;69.20
11474;DHT22;5793;52.238;13.438;2024-03-08T13:45:30;9.80;71.40
11474;DHT22;5793;52.238;13.438;2024-03-08T13:47:58;9.80;72.40
11474;DHT22;5793;52.238;13.438;2024-03-08T13:50:26;9.90;72.20
11474;DHT22;5793;52.238;13.438;2024-03-08T13:52:54;9.90;70.30
11474;DHT22;5793;52.238;13.438;2024-03-08T13:55:24;9.80;71.20
11474;DHT22;5793;52.238;13.438;2024-03-08T13:57:54;9.70;69.10
11474;DHT22;5793;52.238;13.438;2024-03-08T14:00:24;9.70;70.30
11474;DHT22;5793;52.238;13.438;2024-03-08T14:02:54;9.60;72.30
11474;DHT22;5793;52.238;13.438;2024-03-08T14:05:22;9.60;72.70
11474;DHT22;5793;52.238;13.438;2024-03-08T14:07:49;9.50;72.00
11474;DHT22;5793;52.238;13.438;2024-03-08T14:10:21;9.50;71.40
11474;DHT22;5793;52.238;13.438;2024-03-08T14:12:51;9.40;71.40
11474;DHT22;5793;52.238;13.438;2024-03-08T14:15:19;9.40;73.50
11474;DHT22;5793;52.238;13.438;2024-03-08T14:17:52;9.40;72.50
11474;DHT22;5793;52.238;13.438;2024-03-08T14:20:20;9.40;73.80
11474;DHT22;5793;52.238;13.438;2024-03-08T14:22:52;9.40;73.20
11474;DHT22;5793;52.238;13.438;2024-03-08T14:25:20;9.40;73.40
11474;DHT22;5793;52.238;13.438;2024-03-08T14:27:52;9.50;73.90
11474;DHT22;5793;52.238;13.438;2024-03-08T14:30:21;9.40;74.20
11474;DHT22;5793;52.238;13.438;2024-03-08T14:33:01;9.50;73.70
11474;DHT22;5793;52.238;13.438;2024-03-08T14:35:29;9.40;73.10
11474;DHT22;5793;52.238;13.438;2024-03-08T14:37:57;9.40;72.80
11474;DHT22;5793;52.238;13.438;2024-03-08T14:40:25;9.50;73.10
11474;DHT22;5793;52.238;13.438;2024-03-08T14:42:55;9.50;73.30
11474;DHT22;5793;52.238;13.438;2024-03-08T14:45:23;9.40;73.90
11474;DHT22;5793;52.238;13.438;2024-03-08T14:47:53;9.40;73.80
11474;DHT22;5793;52.238;13.438;2024-03-08T14:50:23;9.50;74.60
11474;DHT22;5793;52.238;13.438;2024-03-08T14:52:51;9.40;73.40
11474;DHT22;5793;52.238;13.438;2024-03-08T14:55:20;9.40;73.90
11474;DHT22;5793;52.238;13.438;2024-03-08T14:57:49;9.30;73.70
11474;DHT22;5793;52.238;13.438;2024-03-08T15:00:20;9.30;75.10
11474;DHT22;5793;52.238;13.438;2024-03-08T15:03:00;9.30;75.60
11474;DHT22;5793;52.238;13.438;2024-03-08T15:05:31;9.30;75.90
11474;DHT22;5793;52.238;13.438;2024-03-08T15:08:02;9.40;74.20
11474;DHT22;5793;52.238;13.438;2024-03-08T15:10:37;9.30;76.50
11474;DHT22;5793;52.238;13.438;2024-03-08T15:13:08;9.30;76.00
11474;DHT22;5793;52.238;13.438;2024-03-08T15:15:44;9.10;76.00
11474;DHT22;5793;52.238;13.438;2024-03-08T15:18:12;9.00;76.30
11474;DHT22;5793;52.238;13.438;2024-03-08T15:20:40;8.90;77.60
11474;DHT22;5793;52.238;13.438;2024-03-08T15:23:08;8.90;78.80
11474;DHT22;5793;52.238;13.438;2024-03-08T15:25:37;8.90;79.80
11474;DHT22;5793;52.238;13.438;2024-03-08T15:28:08;8.80;80.10
11474;DHT22;5793;52.238;13.438;2024-03-08T15:30:41;8.80;80.70
11474;DHT22;5793;52.238;13.438;2024-03-08T15:33:14;8.80;80.50
11474;DHT22;5793;52.238;13.438;2024-03-08T15:35:50;8.80;82.50
11474;DHT22;5793;52.238;13.438;2024-03-08T15:38:24;8.80;82.50
11474;DHT22;5793;52.238;13.438;2024-03-08T15:40:54;8.70;83.00
11474;DHT22;5793;52.238;13.438;2024-03-08T15:43:22;8.70;84.60
11474;DHT22;5793;52.238;13.438;2024-03-08T15:45:52;8.70;83.50
11474;DHT22;5793;52.238;13.438;2024-03-08T15:48:22;8.60;85.00
11474;DHT22;5793;52.238;13.438;2024-03-08T15:50:50;8.50;86.50